TimeMDT,TemperatureF,Dew PointF,Humidity,Sea Level PressureIn,VisibilityMPH,Wind Direction,Wind SpeedMPH,Gust SpeedMPH,PrecipitationIn,Events,Conditions,WindDirDegrees,DateUTC
12:55 AM,64.9,55.0,70,29.78,10.0,ESE,4.6,-,N/A,,Clear,110,2013-06-14 06:55:00
1:55 AM,-9999,-9999,N/A,-9999,10.0,SE,10.4,-,N/A,,Unknown,140,2013-06-14 07:55:00
2:55 AM,62.1,54.0,75,29.70,10.0,ESE,11.5,19.6,N/A,,Clear,120,2013-06-14 08:55:00
3:55 AM,62.1,55.0,78,29.75,10.0,NW,9.2,-,0.00,Rain,Light Rain,320,2013-06-14 09:55:00
4:55 AM,59.0,55.0,87,29.73,10.0,ENE,8.1,-,0.00,,Clear,60,2013-06-14 10:55:00
5:55 AM,61.0,55.0,81,29.73,10.0,ESE,10.4,-,N/A,,Clear,110,2013-06-14 11:55:00
6:55 AM,63.0,57.0,81,29.74,10.0,SE,10.4,-,N/A,,Clear,130,2013-06-14 12:55:00
7:55 AM,68.0,59.0,73,29.77,10.0,SSW,5.8,-,N/A,,Clear,210,2013-06-14 13:55:00
8:55 AM,70.0,59.0,68,29.77,10.0,WSW,9.2,-,N/A,,Partly Cloudy,250,2013-06-14 14:55:00
9:55 AM,73.9,59.0,59,29.75,10.0,NNW,16.1,24.2,N/A,,Clear,330,2013-06-14 15:55:00
10:55 AM,77.0,61.0,58,29.77,10.0,WNW,11.5,16.1,N/A,,Clear,300,2013-06-14 16:55:00
11:55 AM,79.0,61.0,54,29.78,10.0,NW,21.9,26.5,N/A,,Partly Cloudy,320,2013-06-14 17:55:00
12:55 PM,81.0,61.0,50,29.80,10.0,NW,13.8,23.0,N/A,,Scattered Clouds,310,2013-06-14 18:55:00
1:55 PM,82.0,61.0,49,29.80,10.0,NNW,15.0,23.0,N/A,,Scattered Clouds,330,2013-06-14 19:55:00
2:55 PM,84.0,59.0,43,29.80,10.0,NNW,12.7,23.0,N/A,,Clear,330,2013-06-14 20:55:00
3:55 PM,84.9,55.0,36,29.79,10.0,NNW,8.1,18.4,N/A,,Clear,340,2013-06-14 21:55:00
4:55 PM,84.9,48.9,29,29.80,10.0,NNW,10.4,20.7,N/A,,Clear,330,2013-06-14 22:55:00
5:55 PM,84.0,46.0,26,29.78,10.0,North,12.7,-,N/A,,Clear,360,2013-06-14 23:55:00
6:55 PM,81.0,46.9,30,29.79,10.0,NNE,10.4,-,N/A,,Clear,30,2013-06-15 00:55:00
7:55 PM,73.9,48.0,40,29.81,10.0,NNE,10.4,-,N/A,,Clear,20,2013-06-15 01:55:00
8:55 PM,66.9,48.0,51,29.87,10.0,North,10.4,-,N/A,,Clear,10,2013-06-15 02:55:00
9:55 PM,64.9,51.1,61,29.90,10.0,North,11.5,-,N/A,,Clear,360,2013-06-15 03:55:00
10:55 PM,62.1,51.1,67,29.91,10.0,North,10.4,-,N/A,,Clear,10,2013-06-15 04:55:00
11:55 PM,63.0,48.0,58,29.95,10.0,North,4.6,-,N/A,,Clear,10,2013-06-15 05:55:00